Time;durP1;ratioP1;P1;durP2;ratioP2;P2;SDS_P1;SDS_P2;PMS_P1;PMS_P2;Temp;Humidity;BMP_temperature;BMP_pressure;BME280_temperature;BME280_humidity;BME280_pressure;Samples;Min_cycle;Max_cycle;Signal;HPM_P1;HPM_P2
2022/12/09 00:00:55;;;;;;;14.75;13.45;;;;;;;1.02;100.00;100616.66;5111288;28;20046;-63
2022/12/09 00:03:20;;;;;;;14.35;13.15;;;;;;;1.06;100.00;100619.00;5110286;28;20028;-62
2022/12/09 00:05:45;;;;;;;15.05;13.77;;;;;;;1.08;100.00;100611.56;5106537;28;20043;-62
2022/12/09 00:08:11;;;;;;;14.82;13.52;;;;;;;1.10;100.00;100610.34;5110443;28;20070;-63
2022/12/09 00:10:36;;;;;;;14.80;13.60;;;;;;;1.11;100.00;100616.59;5109019;28;20035;-62
2022/12/09 00:13:01;;;;;;;14.88;13.45;;;;;;;1.12;100.00;100613.75;5109611;28;20023;-63
2022/12/09 00:15:27;;;;;;;14.95;13.65;;;;;;;1.12;100.00;100608.34;5110330;28;20466;-62
2022/12/09 00:17:52;;;;;;;15.75;14.45;;;;;;;1.15;100.00;100607.13;5110543;28;20478;-63
2022/12/09 00:20:17;;;;;;;15.73;14.48;;;;;;;1.15;100.00;100612.53;5110850;28;20059;-62
2022/12/09 00:22:43;;;;;;;15.65;14.25;;;;;;;1.15;100.00;100601.72;5104766;28;20031;-63
2022/12/09 00:25:08;;;;;;;16.00;14.70;;;;;;;1.13;100.00;100606.47;5103836;28;20106;-63
2022/12/09 00:27:33;;;;;;;16.10;14.80;;;;;;;1.12;100.00;100600.22;5103183;28;20174;-63
2022/12/09 00:29:58;;;;;;;15.48;14.13;;;;;;;1.13;100.00;100601.91;5110091;28;20031;-63
2022/12/09 00:32:24;;;;;;;15.95;14.65;;;;;;;1.13;100.00;100604.59;5110265;28;20074;-63
2022/12/09 00:34:49;;;;;;;15.63;14.32;;;;;;;1.14;100.00;100606.28;5109082;28;20446;-63
2022/12/09 00:37:14;;;;;;;15.07;13.88;;;;;;;1.16;100.00;100603.41;5106814;28;20107;-63
2022/12/09 00:39:40;;;;;;;15.20;13.88;;;;;;;1.17;100.00;100611.34;5107765;28;20028;-63
2022/12/09 00:42:05;;;;;;;15.15;13.95;;;;;;;1.18;100.00;100613.03;5110434;28;20035;-62
2022/12/09 00:44:30;;;;;;;15.02;13.63;;;;;;;1.18;100.00;100606.78;5108151;28;20024;-62
2022/12/09 00:49:31;;;;;;;16.17;14.68;;;;;;;1.18;100.00;100606.78;4258257;26;20046;-62
2022/12/09 00:51:56;;;;;;;15.35;13.95;;;;;;;1.15;100.00;100615.25;5003755;28;20433;-62
2022/12/09 00:54:21;;;;;;;15.88;14.57;;;;;;;1.14;100.00;100610.84;5011613;28;20034;-62
2022/12/09 00:56:46;;;;;;;15.20;13.90;;;;;;;1.14;100.00;100610.84;5011760;28;20034;-63
2022/12/09 00:59:12;;;;;;;15.80;14.45;;;;;;;1.15;100.00;100612.53;5011569;28;20062;-63
2022/12/09 01:01:37;;;;;;;16.63;15.13;;;;;;;1.17;100.00;100602.41;5011077;28;20030;-62
2022/12/09 01:04:07;;;;;;;16.25;14.75;;;;;;;1.17;100.00;100597.00;5008844;28;20026;-62
2022/12/09 01:06:32;;;;;;;16.33;14.93;;;;;;;1.20;100.00;100602.03;5008921;28;20034;-62
2022/12/09 01:08:57;;;;;;;17.55;16.15;;;;;;;1.19;100.00;100606.59;5009115;28;20076;-62
2022/12/09 01:11:25;;;;;;;17.70;16.20;;;;;;;1.20;100.00;100605.59;5010382;28;20029;-62
2022/12/09 01:13:51;;;;;;;17.70;16.10;;;;;;;1.21;100.00;100599.16;5011393;28;20881;-64
2022/12/09 01:16:22;;;;;;;17.48;15.88;;;;;;;1.19;100.00;100603.91;5012096;28;20026;-63
2022/12/09 01:18:48;;;;;;;16.85;15.38;;;;;;;1.22;100.00;100603.56;5010257;28;20079;-63
2022/12/09 01:21:13;;;;;;;17.75;16.17;;;;;;;1.22;100.00;100600.84;5009561;28;20038;-63
2022/12/09 01:23:39;;;;;;;18.50;16.90;;;;;;;1.25;100.00;100605.91;5011679;28;20033;-62
2022/12/09 01:26:05;;;;;;;17.70;16.30;;;;;;;1.25;100.00;100603.19;5011562;28;20088;-62
2022/12/09 01:28:33;;;;;;;18.08;16.38;;;;;;;1.25;100.00;100607.75;5011891;28;20025;-62
2022/12/09 01:31:14;;;;;;;17.02;15.63;;;;;;;1.27;100.00;100609.28;5009954;28;20033;-62
2022/12/09 01:33:39;;;;;;;17.05;15.45;;;;;;;1.26;100.00;100609.44;5010085;28;20385;-62
2022/12/09 01:36:07;;;;;;;16.55;15.15;;;;;;;1.22;100.00;100610.84;5010855;28;20026;-62
2022/12/09 01:38:32;;;;;;;17.53;15.80;;;;;;;1.19;100.00;100611.19;5010275;28;20037;-63
2022/12/09 01:40:57;;;;;;;17.17;15.77;;;;;;;1.21;100.00;100614.53;5010525;28;20036;-62
2022/12/09 01:43:23;;;;;;;17.08;15.52;;;;;;;1.23;100.00;100626.03;5009827;28;20486;-62
2022/12/09 01:45:48;;;;;;;17.15;15.65;;;;;;;1.25;100.00;100629.41;5010824;28;20034;-63
2022/12/09 01:48:17;;;;;;;16.67;15.18;;;;;;;1.25;100.00;100624.84;5010224;28;20050;-62
2022/12/09 01:50:44;;;;;;;17.63;16.13;;;;;;;1.26;100.00;100629.22;5011506;28;20469;-62
2022/12/09 01:53:12;;;;;;;16.40;14.93;;;;;;;1.29;100.00;100628.03;5010869;28;20061;-62
2022/12/09 01:55:38;;;;;;;16.23;14.82;;;;;;;1.29;100.00;100619.91;5011065;28;20112;-62
2022/12/09 01:58:04;;;;;;;16.90;15.38;;;;;;;1.29;100.00;100626.19;5009969;28;20072;-62
2022/12/09 02:00:29;;;;;;;16.38;14.77;;;;;;;1.28;100.00;100623.66;5010234;28;20034;-63
2022/12/09 02:02:55;;;;;;;16.65;15.25;;;;;;;1.27;100.00;100613.84;5009387;28;20417;-62
2022/12/09 02:05:23;;;;;;;16.63;14.95;;;;;;;1.28;100.00;100618.25;5010777;28;20365;-62
2022/12/09 02:07:48;;;;;;;14.93;13.60;;;;;;;1.32;100.00;100618.72;5011048;28;20052;-63
2022/12/09 02:10:16;;;;;;;15.63;14.15;;;;;;;1.28;100.00;100619.09;5010409;28;20026;-62
2022/12/09 02:13:21;;;;;;;16.98;15.43;;;;;;;1.30;100.00;100619.75;5009237;28;20042;-62
2022/12/09 02:15:52;;;;;;;15.55;14.15;;;;;;;1.29;100.00;100620.75;5004096;28;20034;-62
2022/12/09 02:18:28;;;;;;;16.17;14.57;;;;;;;1.34;100.00;100624.81;5007931;28;20060;-64
2022/12/09 02:21:00;;;;;;;15.10;13.90;;;;;;;1.30;100.00;100614.31;4992039;28;20022;-62
2022/12/09 02:23:37;;;;;;;15.55;14.15;;;;;;;1.27;100.00;100616.56;5010595;28;20030;-62
2022/12/09 02:26:26;;;;;;;16.48;14.80;;;;;;;1.30;100.00;100618.91;5009945;28;20033;-62
2022/12/09 02:29:03;;;;;;;17.92;16.10;;;;;;;1.25;100.00;100618.59;4997055;28;20033;-63
2022/12/09 02:31:49;;;;;;;16.73;15.30;;;;;;;1.28;100.00;100612.84;5010084;28;20029;-62
2022/12/09 02:34:16;;;;;;;17.48;15.88;;;;;;;1.25;100.00;100621.28;5007156;28;20484;-63
2022/12/09 02:36:51;;;;;;;16.77;15.13;;;;;;;1.25;100.00;100621.28;5010311;28;20032;-63
2022/12/09 02:39:21;;;;;;;17.02;15.23;;;;;;;1.23;100.00;100612.50;5009037;28;20091;-62
2022/12/09 02:41:48;;;;;;;15.93;14.52;;;;;;;1.24;100.00;100622.31;5009235;28;20064;-62
2022/12/09 02:44:18;;;;;;;17.23;15.63;;;;;;;1.25;100.00;100621.28;5010341;28;20053;-62
2022/12/09 02:46:44;;;;;;;17.20;15.70;;;;;;;1.26;100.00;100620.25;5009918;28;20495;-62
2022/12/09 02:49:13;;;;;;;18.27;16.58;;;;;;;1.25;100.00;100619.41;5008870;28;20120;-62
2022/12/09 02:51:40;;;;;;;;;;;;;;;1.34;100.00;100614.00;5009748;28;20062;-63
2022/12/09 02:54:10;;;;;;;17.17;15.57;;;;;;;1.32;100.00;100614.16;5008555;28;19984;-62
2022/12/09 02:56:37;;;;;;;17.58;16.08;;;;;;;1.32;100.00;100606.06;5010145;28;20038;-62
2022/12/09 02:59:03;;;;;;;17.52;15.82;;;;;;;1.33;100.00;100607.72;5009016;28;20041;-63
2022/12/09 03:01:33;;;;;;;18.02;16.20;;;;;;;1.35;100.00;100602.97;5010258;28;20033;-62
2022/12/09 03:04:00;;;;;;;18.30;16.45;;;;;;;1.35;100.00;100597.56;5008368;28;20018;-62
2022/12/09 03:06:37;;;;;;;17.38;15.80;;;;;;;1.34;100.00;100598.59;5009181;28;20130;-62
2022/12/09 03:09:15;;;;;;;17.02;15.32;;;;;;;1.35;100.00;100600.28;5008737;28;20034;-61
2022/12/09 03:11:41;;;;;;;17.15;15.63;;;;;;;1.32;100.00;100597.94;5009189;28;20038;-62
2022/12/09 03:14:15;;;;;;;18.05;16.30;;;;;;;1.32;100.00;100597.06;5009396;28;20076;-62
2022/12/09 03:17:01;;;;;;;17.17;15.05;;;;;;;1.36;100.00;100593.00;5009843;28;20034;-63
2022/12/09 03:19:35;;;;;;;17.73;15.95;;;;;;;1.31;100.00;100590.81;5008141;28;20033;-62
2022/12/09 03:22:06;;;;;;;18.23;16.23;;;;;;;1.30;100.00;100589.97;5006059;28;20130;-62
2022/12/09 03:24:40;;;;;;;17.23;15.52;;;;;;;1.33;100.00;100583.38;5009097;28;20108;-63
2022/12/09 03:27:11;;;;;;;17.25;15.55;;;;;;;1.32;100.00;100581.72;5009560;28;20349;-62
2022/12/09 03:29:41;;;;;;;16.73;15.07;;;;;;;1.34;100.00;100586.94;5008516;28;20026;-63
2022/12/09 03:32:10;;;;;;;18.83;16.75;;;;;;;1.36;100.00;100582.16;5006309;28;20374;-62
2022/12/09 03:34:39;;;;;;;17.98;16.13;;;;;;;1.32;100.00;100579.00;5008741;28;20108;-62
2022/12/09 03:37:08;;;;;;;18.20;16.27;;;;;;;1.34;100.00;100573.41;5007627;28;20034;-63
2022/12/09 03:39:36;;;;;;;17.73;16.02;;;;;;;1.34;100.00;100584.22;5004485;28;20030;-62
2022/12/09 03:42:08;;;;;;;17.75;15.85;;;;;;;1.36;100.00;100577.59;5007859;28;20368;-62
2022/12/09 03:44:37;;;;;;;17.77;15.85;;;;;;;1.38;100.00;100578.28;5008740;28;20033;-62
2022/12/09 03:47:04;;;;;;;17.67;15.93;;;;;;;1.40;100.00;100576.22;5008283;28;20173;-63
2022/12/09 03:49:30;;;;;;;18.52;16.80;;;;;;;1.39;100.00;100571.00;5007561;28;20078;-62
2022/12/09 03:52:03;;;;;;;17.27;15.52;;;;;;;1.37;100.00;100576.59;5008332;28;20049;-62
2022/12/09 03:54:37;;;;;;;18.63;16.90;;;;;;;1.38;100.00;100572.03;5007267;28;20026;-62
2022/12/09 03:57:03;;;;;;;17.52;15.85;;;;;;;1.38;100.00;100570.16;5007870;28;20037;-62
2022/12/09 03:59:33;;;;;;;17.95;16.20;;;;;;;1.39;100.00;100566.44;5009016;28;20030;-62
2022/12/09 04:01:59;;;;;;;18.13;16.52;;;;;;;1.42;100.00;100565.22;5009273;28;20116;-62
2022/12/09 04:04:25;;;;;;;18.65;16.60;;;;;;;1.42;100.00;100567.94;5008073;28;20417;-62
2022/12/09 04:06:52;;;;;;;18.00;16.40;;;;;;;1.41;100.00;100575.19;5008011;28;20396;-62
2022/12/09 04:09:17;;;;;;;18.05;16.55;;;;;;;1.42;100.00;100570.63;5008109;28;20057;-64
2022/12/09 04:11:43;;;;;;;17.30;15.70;;;;;;;1.44;100.00;100579.44;5008602;28;20127;-62
2022/12/09 04:14:08;;;;;;;16.42;14.93;;;;;;;1.41;100.00;100569.78;5008685;28;20022;-62
2022/12/09 04:16:33;;;;;;;15.95;14.60;;;;;;;1.40;100.00;100570.81;5008605;28;20026;-62
2022/12/09 04:18:59;;;;;;;16.92;15.35;;;;;;;1.37;100.00;100568.50;4989575;28;20415;-62
2022/12/09 04:21:24;;;;;;;17.27;15.68;;;;;;;1.35;100.00;100565.09;5008090;28;20221;-62
2022/12/09 04:23:49;;;;;;;16.50;15.10;;;;;;;1.36;100.00;100566.78;5006864;28;20036;-62
2022/12/09 04:26:18;;;;;;;16.95;15.65;;;;;;;1.36;100.00;100574.06;5007717;28;20716;-62
2022/12/09 04:28:43;;;;;;;16.58;15.23;;;;;;;1.35;100.00;100570.50;5007808;28;20465;-62
2022/12/09 04:31:13;;;;;;;16.20;14.80;;;;;;;1.36;100.00;100569.47;5008154;28;20037;-63
2022/12/09 04:33:39;;;;;;;15.70;14.40;;;;;;;1.37;100.00;100560.38;5008347;28;20101;-63
2022/12/09 04:36:11;;;;;;;17.33;15.75;;;;;;;1.37;100.00;100568.50;5006719;28;20038;-62
2022/12/09 04:38:36;;;;;;;16.02;14.63;;;;;;;1.36;100.00;100563.22;5007679;28;20042;-62
2022/12/09 04:41:03;;;;;;;16.90;15.40;;;;;;;1.36;100.00;100563.22;5010573;28;20076;-62
2022/12/09 04:43:28;;;;;;;16.73;15.32;;;;;;;1.35;100.00;100558.84;5003932;28;20433;-61
2022/12/09 04:45:59;;;;;;;17.02;15.50;;;;;;;1.31;100.00;100558.34;5011711;28;20184;-62
2022/12/09 04:48:25;;;;;;;16.10;14.63;;;;;;;1.29;100.00;100558.53;5011040;28;20249;-63
2022/12/09 04:50:50;;;;;;;16.60;14.95;;;;;;;1.31;100.00;100552.94;5011438;28;20131;-64
2022/12/09 04:53:15;;;;;;;17.63;15.93;;;;;;;1.34;100.00;100563.41;5012039;28;20034;-62
2022/12/09 04:55:40;;;;;;;15.68;14.27;;;;;;;1.37;100.00;100562.22;5008668;28;20168;-63
2022/12/09 04:58:06;;;;;;;15.63;14.23;;;;;;;1.37;100.00;100562.22;5011334;28;20045;-62
2022/12/09 05:00:31;;;;;;;16.33;14.93;;;;;;;1.35;100.00;100564.25;5012021;28;20022;-62
2022/12/09 05:02:56;;;;;;;16.05;14.55;;;;;;;1.34;100.00;100568.84;5010377;28;20038;-62
2022/12/09 05:05:22;;;;;;;15.60;14.20;;;;;;;1.35;100.00;100567.81;5011437;28;20022;-62
2022/12/09 05:07:47;;;;;;;15.95;14.52;;;;;;;1.33;100.00;100572.56;5012318;28;20101;-62
2022/12/09 05:10:13;;;;;;;15.70;14.25;;;;;;;1.30;100.00;100564.78;5010405;28;20040;-62
2022/12/09 05:12:38;;;;;;;15.40;13.98;;;;;;;1.33;100.00;100569.03;5011237;28;20052;-62
2022/12/09 05:15:04;;;;;;;15.00;13.70;;;;;;;1.30;100.00;100568.34;5010388;28;20172;-63
2022/12/09 05:17:29;;;;;;;15.35;14.05;;;;;;;1.30;100.00;100570.19;5010694;28;20034;-62
2022/12/09 05:19:54;;;;;;;15.07;13.77;;;;;;;1.31;100.00;100571.88;5009899;28;20033;-62
2022/12/09 05:22:20;;;;;;;15.32;13.93;;;;;;;1.32;100.00;100564.59;5011426;28;20030;-62
2022/12/09 05:24:46;;;;;;;14.60;13.30;;;;;;;1.31;100.00;100571.88;5010939;28;20041;-62
2022/12/09 05:27:12;;;;;;;14.77;13.48;;;;;;;1.26;100.00;100571.56;5009725;28;20472;-62
2022/12/09 05:29:38;;;;;;;14.75;13.43;;;;;;;1.25;100.00;100564.47;5011298;28;20559;-61
2022/12/09 05:32:03;;;;;;;14.60;13.02;;;;;;;1.27;100.00;100574.13;5010090;28;20065;-61
2022/12/09 05:34:28;;;;;;;14.57;13.27;;;;;;;1.29;100.00;100565.81;5008296;28;20030;-62
2022/12/09 05:36:54;;;;;;;14.70;13.38;;;;;;;1.30;100.00;100568.34;5011314;28;20456;-62
2022/12/09 05:39:19;;;;;;;14.68;13.45;;;;;;;1.30;100.00;100556.66;5008812;28;20120;-63
2022/12/09 05:41:46;;;;;;;13.95;12.75;;;;;;;1.29;100.00;100566.66;4996885;28;20049;-62
2022/12/09 05:44:12;;;;;;;14.65;13.35;;;;;;;1.28;100.00;100559.56;5010913;28;20373;-62
2022/12/09 05:46:37;;;;;;;15.48;14.07;;;;;;;1.30;100.00;100571.03;5010605;28;20358;-62
2022/12/09 05:49:03;;;;;;;14.70;13.50;;;;;;;1.27;100.00;100570.56;5009792;28;20100;-62
2022/12/09 05:51:29;;;;;;;14.45;13.25;;;;;;;1.25;100.00;100569.88;5008380;28;20061;-62
2022/12/09 05:53:56;;;;;;;14.52;13.23;;;;;;;1.28;100.00;100559.56;5010171;28;20372;-62
2022/12/09 05:56:23;;;;;;;15.10;13.60;;;;;;;1.32;100.00;100570.00;5009223;28;20354;-62
2022/12/09 05:58:49;;;;;;;14.50;13.25;;;;;;;1.33;100.00;100567.16;5009561;28;20056;-63
2022/12/09 06:01:15;;;;;;;14.35;12.88;;;;;;;1.36;100.00;100566.78;5010350;28;20030;-62
2022/12/09 06:03:41;;;;;;;13.60;12.30;;;;;;;1.36;100.00;100565.94;5009476;28;20032;-62
2022/12/09 06:06:11;;;;;;;13.77;12.63;;;;;;;1.37;100.00;100556.78;5009569;28;20025;-62
2022/12/09 06:08:37;;;;;;;12.43;11.35;;;;;;;1.36;100.00;100555.94;5009559;28;20117;-62
2022/12/09 06:11:03;;;;;;;12.98;11.88;;;;;;;1.35;100.00;100556.16;5008851;28;20108;-61
2022/12/09 06:13:29;;;;;;;13.57;12.38;;;;;;;1.33;100.00;100553.63;5011053;28;20026;-62
2022/12/09 06:15:54;;;;;;;12.88;11.68;;;;;;;1.29;100.00;100561.25;5009361;28;20384;-62
2022/12/09 06:18:19;;;;;;;13.00;11.90;;;;;;;1.29;100.00;100560.41;5008818;28;20037;-62
2022/12/09 06:20:45;;;;;;;13.13;11.93;;;;;;;1.30;100.00;100559.38;5010348;28;20112;-62
2022/12/09 06:23:10;;;;;;;12.55;11.45;;;;;;;1.33;100.00;100561.75;5009556;28;20041;-62
2022/12/09 06:25:36;;;;;;;13.20;12.00;;;;;;;1.32;100.00;100543.84;5007611;28;20030;-63
2022/12/09 06:28:02;;;;;;;12.50;11.40;;;;;;;1.35;100.00;100556.16;5008914;28;20105;-61
2022/12/09 06:30:27;;;;;;;12.45;11.35;;;;;;;1.32;100.00;100554.66;5010503;28;20436;-62
2022/12/09 06:32:52;;;;;;;12.43;11.32;;;;;;;1.33;100.00;100560.91;5009284;28;20116;-62
2022/12/09 06:35:17;;;;;;;11.88;10.88;;;;;;;1.32;100.00;100560.06;5008864;28;20033;-62
2022/12/09 06:37:43;;;;;;;10.88;9.98;;;;;;;1.32;100.00;100562.75;5008798;28;20033;-62
2022/12/09 06:40:09;;;;;;;11.18;10.27;;;;;;;1.31;100.00;100561.06;5003002;28;20120;-63
2022/12/09 06:42:34;;;;;;;11.00;10.10;;;;;;;1.25;100.00;100559.91;5006605;28;20520;-62
2022/12/09 06:44:59;;;;;;;10.18;9.38;;;;;;;1.27;100.00;100563.28;5009895;28;20546;-62
2022/12/09 06:47:24;;;;;;;10.60;9.70;;;;;;;1.27;100.00;100566.00;5007593;28;20034;-63
2022/12/09 06:49:50;;;;;;;10.60;9.70;;;;;;;1.25;100.00;100562.63;5009682;28;20225;-64
2022/12/09 06:52:15;;;;;;;10.63;9.73;;;;;;;1.25;100.00;100561.78;5009778;28;20028;-61
2022/12/09 06:54:41;;;;;;;10.65;9.75;;;;;;;1.24;100.00;100562.81;5010197;28;20072;-62
2022/12/09 06:57:06;;;;;;;10.38;9.57;;;;;;;1.24;100.00;100560.94;5008603;28;20022;-62
2022/12/09 06:59:31;;;;;;;11.10;10.20;;;;;;;1.22;100.00;100562.97;5009699;28;20030;-62
2022/12/09 07:01:57;;;;;;;10.85;9.95;;;;;;;1.20;100.00;100572.28;5007374;28;20046;-63
2022/12/09 07:04:22;;;;;;;10.57;9.68;;;;;;;1.13;100.00;100564.03;5009565;28;20603;-62
2022/12/09 07:06:47;;;;;;;10.32;9.52;;;;;;;1.10;100.00;100568.94;5007458;28;20124;-62
2022/12/09 07:09:16;;;;;;;10.30;9.50;;;;;;;1.05;100.00;100569.47;5005947;28;20026;-62
2022/12/09 07:11:44;;;;;;;9.70;8.90;;;;;;;1.03;100.00;100572.38;5005226;28;20030;-62
2022/12/09 07:14:10;;;;;;;9.95;9.05;;;;;;;1.00;100.00;100572.69;5009720;28;20029;-62
2022/12/09 07:16:36;;;;;;;9.70;8.90;;;;;;;0.95;100.00;100575.09;5008084;28;20420;-62
2022/12/09 07:19:02;;;;;;;9.30;8.50;;;;;;;0.93;100.00;100576.28;5005649;28;20037;-62
2022/12/09 07:21:28;;;;;;;9.20;8.40;;;;;;;0.89;100.00;100583.06;4999318;28;20472;-63
2022/12/09 07:23:54;;;;;;;8.52;7.82;;;;;;;0.87;100.00;100579.69;5008561;28;20033;-62
2022/12/09 07:26:20;;;;;;;8.77;8.07;;;;;;;0.77;100.00;100577.19;5009211;28;20065;-62
2022/12/09 07:28:46;;;;;;;8.52;7.82;;;;;;;0.67;100.00;100573.84;5009700;28;20036;-61
2022/12/09 07:31:26;;;;;;;8.50;7.80;;;;;;;0.61;100.00;100571.81;5009427;28;20049;-62
2022/12/09 07:33:53;;;;;;;8.73;8.02;;;;;;;0.53;100.00;100588.91;5006310;28;20114;-63
2022/12/09 07:36:20;;;;;;;8.95;8.25;;;;;;;0.45;100.00;100589.75;5007159;28;20374;-62
2022/12/09 07:38:45;;;;;;;8.60;7.90;;;;;;;0.43;100.00;100596.34;5009583;28;20034;-62
2022/12/09 07:41:17;;;;;;;8.90;8.10;;;;;;;0.40;100.00;100596.69;5006516;28;20036;-63
2022/12/09 07:43:44;;;;;;;8.35;7.65;;;;;;;0.38;100.00;100598.72;5009488;28;20033;-62
2022/12/09 07:46:10;;;;;;;8.77;8.00;;;;;;;0.37;100.00;100599.75;5008920;28;20024;-63
2022/12/09 07:48:35;;;;;;;8.30;7.60;;;;;;;0.35;100.00;100594.50;5007343;28;20470;-64
2022/12/09 07:51:02;;;;;;;7.70;7.10;;;;;;;0.33;100.00;100601.09;5006841;28;20046;-62
2022/12/09 07:53:28;;;;;;;8.65;7.95;;;;;;;0.30;100.00;100599.56;5002181;28;20104;-62
2022/12/09 07:55:54;;;;;;;8.63;7.93;;;;;;;0.25;100.00;100600.09;4996190;28;20022;-62
2022/12/09 07:58:19;;;;;;;8.02;7.35;;;;;;;0.22;100.00;100600.44;4997628;28;20022;-62
2022/12/09 08:00:44;;;;;;;8.05;7.35;;;;;;;0.17;100.00;100604.66;5005274;28;20040;-62
2022/12/09 08:03:11;;;;;;;8.32;7.63;;;;;;;0.13;100.00;100603.28;5007708;28;20073;-64
2022/12/09 08:05:45;;;;;;;8.15;7.45;;;;;;;0.13;100.00;100614.09;5008587;28;20041;-63
2022/12/09 08:08:10;;;;;;;8.20;7.50;;;;;;;0.12;100.00;100604.31;5008685;28;20061;-63
2022/12/09 08:10:35;;;;;;;7.53;6.93;;;;;;;0.15;100.00;100598.56;5008029;28;20081;-62
2022/12/09 08:13:01;;;;;;;8.18;7.47;;;;;;;0.16;100.00;100609.22;5008511;28;20030;-63
2022/12/09 08:15:26;;;;;;;8.05;7.38;;;;;;;0.15;100.00;100612.06;5010482;28;20384;-63
2022/12/09 08:17:51;;;;;;;7.53;6.82;;;;;;;0.10;100.00;100609.03;5010253;28;20040;-63
2022/12/09 08:20:16;;;;;;;7.40;6.80;;;;;;;0.15;100.00;100609.34;5012973;28;20028;-63
2022/12/09 08:22:42;;;;;;;6.53;5.93;;;;;;;0.18;100.00;100598.22;5011959;28;20038;-62
2022/12/09 08:25:07;;;;;;;7.45;6.85;;;;;;;0.21;100.00;100606.00;5006080;28;20077;-64
2022/12/09 08:27:33;;;;;;;7.22;6.63;;;;;;;0.23;100.00;100614.78;5007131;28;20045;-63
2022/12/09 08:29:59;;;;;;;7.22;6.63;;;;;;;0.29;100.00;100611.38;5011763;28;20022;-62
2022/12/09 08:32:24;;;;;;;7.40;6.80;;;;;;;0.27;100.00;100608.03;5007012;28;20029;-63
2022/12/09 08:34:49;;;;;;;7.10;6.50;;;;;;;0.25;100.00;100601.94;5009866;28;20029;-63
2022/12/09 08:37:15;;;;;;;7.30;6.70;;;;;;;0.30;100.00;100602.25;5007965;28;20116;-62
2022/12/09 08:39:40;;;;;;;7.00;6.40;;;;;;;0.29;100.00;100603.28;5011144;28;20092;-63
2022/12/09 08:42:05;;;;;;;7.30;6.70;;;;;;;0.32;100.00;100611.06;5005759;28;20480;-62
2022/12/09 08:44:31;;;;;;;7.10;6.50;;;;;;;0.30;100.00;100596.03;5007519;28;20085;-63
2022/12/09 08:46:56;;;;;;;13.20;7.40;;;;;;;0.28;100.00;100606.16;5007772;28;20029;-63
2022/12/09 08:49:22;;;;;;;13.30;6.82;;;;;;;0.18;100.00;100599.06;5009494;28;20044;-63
2022/12/09 08:51:49;;;;;;;12.93;7.00;;;;;;;0.17;100.00;100607.34;5011992;28;20121;-63
2022/12/09 08:54:14;;;;;;;16.67;7.35;;;;;;;0.25;100.00;100594.69;5011295;28;20052;-62
2022/12/09 08:56:44;;;;;;;14.73;6.75;;;;;;;0.21;100.00;100612.25;5010622;28;20042;-63
2022/12/09 08:59:09;;;;;;;11.45;6.50;;;;;;;0.15;100.00;100612.94;5011062;28;20096;-64
2022/12/09 09:01:34;;;;;;;22.83;7.15;;;;;;;0.13;100.00;100611.41;5007684;28;20470;-63
2022/12/09 09:04:12;;;;;;;32.03;7.90;;;;;;;0.08;100.00;100613.75;4990986;28;20061;-63
2022/12/09 09:06:40;;;;;;;21.40;7.22;;;;;;;0.07;100.00;100610.22;5007008;28;20109;-64
2022/12/09 09:09:08;;;;;;;25.33;8.18;;;;;;;0.21;100.00;100614.09;5005964;28;20444;-63
2022/12/09 09:11:33;;;;;;;17.75;7.25;;;;;;;0.19;100.00;100613.41;5009374;28;20373;-63
2022/12/09 09:14:02;;;;;;;19.27;6.97;;;;;;;0.23;100.00;100614.78;5010082;28;20040;-64
2022/12/09 09:16:27;;;;;;;17.58;6.63;;;;;;;0.30;100.00;100618.47;5009851;28;20384;-63
2022/12/09 09:18:52;;;;;;;19.00;7.15;;;;;;;0.25;100.00;100621.69;5009567;28;20026;-63
2022/12/09 09:21:20;;;;;;;30.33;7.50;;;;;;;0.31;100.00;100622.88;5003765;28;20097;-62
2022/12/09 09:23:47;;;;;;;19.30;6.35;;;;;;;0.37;100.00;100619.50;4996109;28;20040;-62
2022/12/09 09:26:18;;;;;;;14.05;5.78;;;;;;;0.37;100.00;100632.16;5009733;28;20084;-63
2022/12/09 09:28:44;;;;;;;16.60;5.88;;;;;;;0.23;100.00;100634.50;5012610;28;20037;-63
2022/12/09 09:31:12;;;;;;;18.42;6.03;;;;;;;0.17;100.00;100639.75;5009425;28;20033;-63
2022/12/09 09:33:38;;;;;;;9.63;5.43;;;;;;;0.22;100.00;100642.78;4997211;28;20401;-63
2022/12/09 09:36:05;;;;;;;15.38;6.10;;;;;;;0.23;100.00;100637.22;5000869;28;20030;-63
2022/12/09 09:38:31;;;;;;;21.92;6.85;;;;;;;0.28;100.00;100646.69;5001562;28;20113;-63
2022/12/09 09:40:59;;;;;;;20.58;7.32;;;;;;;0.30;100.00;100639.22;5007411;28;20112;-62
2022/12/09 09:43:27;;;;;;;16.65;6.03;;;;;;;0.34;100.00;100635.19;5011133;28;20026;-63
2022/12/09 09:45:55;;;;;;;8.05;5.90;;;;;;;0.34;100.00;100636.03;5007170;28;20045;-64
2022/12/09 09:48:26;;;;;;;15.52;5.70;;;;;;;0.31;100.00;100630.13;5007845;28;20050;-65
2022/12/09 09:50:58;;;;;;;6.78;5.47;;;;;;;0.37;100.00;100634.88;5008856;28;20033;-63
2022/12/09 09:53:29;;;;;;;9.60;5.13;;;;;;;0.54;100.00;100633.81;4991674;28;20026;-63
2022/12/09 09:56:13;;;;;;;15.73;6.10;;;;;;;0.49;100.00;100634.31;5007697;28;20481;-63
2022/12/09 09:59:08;;;;;;;7.80;5.63;;;;;;;0.43;100.00;100631.47;4997260;28;20065;-63
2022/12/09 10:01:35;;;;;;;6.18;5.65;;;;;;;0.48;100.00;100638.06;5000319;28;20042;-62
2022/12/09 10:04:24;;;;;;;5.68;5.22;;;;;;;0.52;100.00;100628.59;5006168;28;20036;-62
2022/12/09 10:06:58;;;;;;;5.85;5.35;;;;;;;0.52;100.00;100634.00;5009640;28;20087;-62
2022/12/09 10:09:56;;;;;;;5.93;5.40;;;;;;;0.64;100.00;100630.94;5010569;28;20033;-62
2022/12/09 10:12:42;;;;;;;5.90;5.40;;;;;;;0.72;100.00;100629.06;4971484;28;20068;-63
2022/12/09 10:15:15;;;;;;;5.40;5.00;;;;;;;0.81;100.00;100624.47;5009065;28;20041;-63
2022/12/09 10:17:54;;;;;;;5.10;4.70;;;;;;;0.97;100.00;100618.19;5003991;28;20145;-63
2022/12/09 10:20:26;;;;;;;5.50;5.10;;;;;;;0.85;100.00;100620.41;5007623;28;20034;-63
2022/12/09 10:23:01;;;;;;;5.40;5.00;;;;;;;0.84;100.00;100618.72;5003244;28;20038;-63
2022/12/09 10:25:33;;;;;;;5.18;4.78;;;;;;;0.87;100.00;100628.38;5006706;28;20025;-63
2022/12/09 10:28:07;;;;;;;5.32;4.93;;;;;;;0.90;100.00;100620.72;5007638;28;20033;-63
2022/12/09 10:30:33;;;;;;;4.90;4.50;;;;;;;0.84;100.00;100626.84;5009466;28;20033;-63
2022/12/09 10:32:58;;;;;;;4.85;4.45;;;;;;;0.82;100.00;100625.34;5008826;28;20352;-64
2022/12/09 10:35:29;;;;;;;4.88;4.47;;;;;;;0.85;100.00;100616.88;4988487;28;20053;-63
2022/12/09 10:38:04;;;;;;;4.80;4.40;;;;;;;0.87;100.00;100613.00;5009086;28;20428;-62
2022/12/09 10:40:43;;;;;;;4.88;4.47;;;;;;;0.93;100.00;100619.56;5005537;28;20436;-62
2022/12/09 10:43:36;;;;;;;4.45;4.10;;;;;;;1.03;100.00;100615.63;5001762;28;20045;-63
2022/12/09 10:46:04;;;;;;;4.60;4.20;;;;;;;1.05;100.00;100615.44;5008055;28;20362;-62
2022/12/09 10:48:41;;;;;;;4.37;4.07;;;;;;;1.18;100.00;100612.19;5007881;28;20042;-64
2022/12/09 10:51:12;;;;;;;4.70;4.40;;;;;;;1.25;100.00;100608.59;5005697;28;20436;-62
2022/12/09 10:53:44;;;;;;;4.40;4.10;;;;;;;1.20;100.00;100607.44;5007508;28;20393;-63
2022/12/09 10:56:18;;;;;;;4.35;4.03;;;;;;;1.27;100.00;100611.16;5007629;28;20624;-62
2022/12/09 10:58:43;;;;;;;4.50;4.20;;;;;;;1.43;100.00;100602.09;5007420;28;20065;-62
2022/12/09 11:01:11;;;;;;;3.95;3.65;;;;;;;1.56;100.00;100602.34;5007868;28;20097;-62
2022/12/09 11:03:36;;;;;;;3.88;3.58;;;;;;;1.47;100.00;100601.56;5008077;28;20048;-63
2022/12/09 11:06:13;;;;;;;3.50;3.30;;;;;;;1.35;100.00;100600.28;5007655;28;20026;-64
2022/12/09 11:08:40;;;;;;;3.87;3.67;;;;;;;1.24;100.00;100604.22;5008907;28;20594;-61
2022/12/09 11:11:06;;;;;;;5.15;4.85;;;;;;;1.20;100.00;100599.31;5007757;28;20037;-60
2022/12/09 11:13:39;;;;;;;5.20;4.80;;;;;;;1.19;100.00;100603.06;5007619;28;20034;-62
2022/12/09 11:16:06;;;;;;;3.65;3.45;;;;;;;1.18;100.00;100604.09;5006575;28;21844;-61
2022/12/09 11:18:45;;;;;;;3.60;3.40;;;;;;;1.21;100.00;100606.41;5006539;28;20041;-61
2022/12/09 11:21:31;;;;;;;4.25;3.95;;;;;;;1.29;100.00;100598.28;5006427;28;20099;-60